createdAt,value
2024-03-12T00:04:20.396Z,6.01
2024-03-12T00:09:24.726Z,6.00
2024-03-12T00:14:30.021Z,5.99
2024-03-12T00:19:35.517Z,5.98
2024-03-12T00:24:42.439Z,5.95
2024-03-12T00:29:47.553Z,5.93
2024-03-12T00:34:52.636Z,5.95
2024-03-12T00:39:57.631Z,5.96
2024-03-12T00:45:03.461Z,6.00
2024-03-12T00:50:13.936Z,6.02
2024-03-12T00:55:20.574Z,6.01
2024-03-12T01:00:30.446Z,6.03
2024-03-12T01:05:40.924Z,6.06
2024-03-12T01:10:47.284Z,6.12
2024-03-12T01:15:56.416Z,6.18
2024-03-12T01:21:01.750Z,6.22
2024-03-12T01:26:08.136Z,6.23
2024-03-12T01:31:12.290Z,6.24
2024-03-12T01:36:22.524Z,6.28
2024-03-12T01:41:27.942Z,6.34
2024-03-12T01:46:35.018Z,6.39
2024-03-12T01:51:39.376Z,6.41
2024-03-12T01:56:48.788Z,6.41
2024-03-12T02:02:02.431Z,6.35
2024-03-12T02:07:07.297Z,6.35
2024-03-12T02:12:11.544Z,6.39
2024-03-12T02:17:16.738Z,6.40
2024-03-12T02:22:20.885Z,6.40
2024-03-12T02:27:25.265Z,6.36
2024-03-12T02:32:29.994Z,6.35
2024-03-12T02:37:34.832Z,6.40
2024-03-12T02:42:46.142Z,6.45
2024-03-12T02:47:51.098Z,6.48
2024-03-12T02:52:58.114Z,6.50
2024-03-12T02:58:05.957Z,6.49
2024-03-12T03:03:10.884Z,6.48
2024-03-12T03:08:14.802Z,6.45
2024-03-12T03:13:20.547Z,6.38
2024-03-12T03:18:24.716Z,6.34
2024-03-12T03:23:28.570Z,6.35
2024-03-12T03:28:32.204Z,6.37
2024-03-12T03:33:41.450Z,6.39
2024-03-12T03:38:46.952Z,6.39
2024-03-12T03:43:50.775Z,6.41
2024-03-12T03:48:57.954Z,6.43
2024-03-12T03:54:03.150Z,6.45
2024-03-12T03:59:07.555Z,6.47
2024-03-12T04:04:14.757Z,6.46
2024-03-12T04:09:19.883Z,6.45
2024-03-12T04:14:26.859Z,6.45
2024-03-12T04:19:33.587Z,6.45
2024-03-12T04:24:39.722Z,6.42
2024-03-12T04:29:43.794Z,6.38
2024-03-12T04:34:48.451Z,6.35
2024-03-12T04:39:52.940Z,6.31
2024-03-12T04:44:58.667Z,6.28
2024-03-12T04:50:04.877Z,6.27
2024-03-12T04:55:09.674Z,6.25
2024-03-12T05:00:21.060Z,6.24
2024-03-12T05:05:25.307Z,6.22
2024-03-12T05:10:29.110Z,6.19
2024-03-12T05:15:33.051Z,6.19
2024-03-12T05:20:37.752Z,6.20
2024-03-12T05:25:43.097Z,6.19
2024-03-12T05:30:47.976Z,6.18
2024-03-12T05:35:53.997Z,6.16
2024-03-12T05:41:11.071Z,6.15
2024-03-12T05:46:34.133Z,6.16
2024-03-12T05:51:39.830Z,6.16
2024-03-12T05:56:44.495Z,6.18
2024-03-12T06:01:50.753Z,6.20
2024-03-12T06:06:55.287Z,6.21
2024-03-12T06:12:00.361Z,6.18
2024-03-12T06:17:05.371Z,6.19
2024-03-12T06:22:10.646Z,6.19
2024-03-12T06:27:15.934Z,6.20
2024-03-12T06:32:23.164Z,6.22
2024-03-12T06:37:29.259Z,6.24
2024-03-12T06:42:33.511Z,6.27
2024-03-12T06:47:42.883Z,6.28
2024-03-12T06:52:50.778Z,6.29
2024-03-12T06:58:06.006Z,6.33
2024-03-12T07:03:11.135Z,6.37
2024-03-12T07:08:17.976Z,6.42
2024-03-12T07:13:24.066Z,6.49
2024-03-12T07:18:27.976Z,6.56
2024-03-12T07:23:33.642Z,6.63
2024-03-12T07:28:39.914Z,6.66
2024-03-12T07:33:45.497Z,6.72
2024-03-12T07:38:49.952Z,6.78
2024-03-12T07:43:55.217Z,6.84
2024-03-12T07:49:00.452Z,6.95
2024-03-12T07:54:08.067Z,7.05
2024-03-12T07:59:12.891Z,7.11
2024-03-12T08:04:18.355Z,7.15
2024-03-12T08:09:22.800Z,7.18
2024-03-12T08:14:26.933Z,7.20
2024-03-12T08:19:31.211Z,7.26
2024-03-12T08:24:36.576Z,7.34
2024-03-12T08:29:41.234Z,7.41
2024-03-12T08:34:46.235Z,7.44
2024-03-12T08:39:51.992Z,7.48
2024-03-12T08:44:57.541Z,7.48
2024-03-12T08:50:02.069Z,7.46
2024-03-12T08:55:06.478Z,7.44
2024-03-12T09:00:13.941Z,7.40
2024-03-12T09:05:18.539Z,7.38
2024-03-12T09:10:22.779Z,7.36
2024-03-12T09:15:26.930Z,7.35
2024-03-12T09:20:30.964Z,7.34
2024-03-12T09:25:35.312Z,7.32
2024-03-12T09:30:39.776Z,7.32
2024-03-12T09:35:43.959Z,7.29
2024-03-12T09:40:52.013Z,7.28
2024-03-12T09:45:56.377Z,7.26
2024-03-12T09:51:00.983Z,7.24
2024-03-12T09:56:08.196Z,7.19
2024-03-12T10:01:14.478Z,7.16
2024-03-12T10:06:19.254Z,7.13
2024-03-12T10:11:25.122Z,7.09
2024-03-12T10:16:34.645Z,7.11
2024-03-12T10:21:39.133Z,7.17
2024-03-12T10:26:46.868Z,7.24
2024-03-12T10:31:52.317Z,7.28
2024-03-12T10:36:55.945Z,7.32
2024-03-12T10:42:01.880Z,7.34
2024-03-12T10:47:06.457Z,7.36
2024-03-12T10:52:12.303Z,7.38
2024-03-12T10:57:16.577Z,7.41
2024-03-12T11:02:21.909Z,7.47
2024-03-12T11:07:28.055Z,7.53
2024-03-12T11:12:33.694Z,7.53
2024-03-12T11:17:41.708Z,7.55
2024-03-12T11:22:47.369Z,7.62
2024-03-12T11:27:53.806Z,7.66
2024-03-12T11:32:59.379Z,7.68
2024-03-12T11:38:10.644Z,7.71
2024-03-12T11:43:39.848Z,7.79
2024-03-12T11:48:44.365Z,7.90
2024-03-12T11:53:49.568Z,7.96
2024-03-12T11:59:02.542Z,7.94
2024-03-12T12:04:12.386Z,7.90
2024-03-12T12:09:17.075Z,7.86
2024-03-12T12:14:22.500Z,7.82
2024-03-12T12:19:32.303Z,7.82
2024-03-12T12:24:41.877Z,7.75
2024-03-12T12:29:45.989Z,7.75
2024-03-12T12:34:51.229Z,7.75
2024-03-12T12:39:56.150Z,7.75
2024-03-12T12:45:17.986Z,7.74
2024-03-12T12:50:33.750Z,7.74
2024-03-12T12:55:41.335Z,7.75
2024-03-12T13:00:47.946Z,7.79
2024-03-12T13:05:52.354Z,7.80
2024-03-12T13:11:06.996Z,7.81
2024-03-12T13:16:20.282Z,7.83
2024-03-12T13:21:26.591Z,7.84
2024-03-12T13:26:33.601Z,7.84
2024-03-12T13:31:38.597Z,7.81
2024-03-12T13:36:45.275Z,7.82
2024-03-12T13:41:50.959Z,7.84
2024-03-12T13:46:55.849Z,7.86
2024-03-12T13:51:59.987Z,7.82
2024-03-12T13:57:05.217Z,7.76
2024-03-12T14:02:10.080Z,7.73
2024-03-12T14:07:17.001Z,7.75
2024-03-12T14:12:22.347Z,7.76
2024-03-12T14:17:36.687Z,7.77
2024-03-12T14:22:50.336Z,7.77
2024-03-12T14:28:00.352Z,7.78
2024-03-12T14:33:05.413Z,7.77
2024-03-12T14:38:17.339Z,7.73
2024-03-12T14:43:23.893Z,7.68
2024-03-12T14:48:30.627Z,7.60
2024-03-12T14:53:41.327Z,7.53
2024-03-12T14:58:56.744Z,7.49
2024-03-12T15:04:03.494Z,7.47
2024-03-12T15:09:08.830Z,7.44
2024-03-12T15:14:16.763Z,7.40
2024-03-12T15:19:21.072Z,7.34
2024-03-12T15:24:28.343Z,7.33
2024-03-12T15:29:34.759Z,7.31
2024-03-12T15:34:46.143Z,7.28
2024-03-12T15:39:50.152Z,7.25
2024-03-12T15:44:55.140Z,7.23
2024-03-12T15:49:59.239Z,7.19
2024-03-12T15:55:03.570Z,7.17
2024-03-12T16:00:09.927Z,7.11
2024-03-12T16:05:14.169Z,7.07
2024-03-12T16:10:17.834Z,7.03
2024-03-12T16:15:23.822Z,7.01
2024-03-12T16:20:27.665Z,6.96
2024-03-12T16:25:31.711Z,6.91
2024-03-12T16:30:36.564Z,6.87
2024-03-12T16:35:42.563Z,6.83
2024-03-12T16:40:47.805Z,6.79
2024-03-12T16:45:51.280Z,6.74
2024-03-12T16:50:55.339Z,6.70
2024-03-12T16:56:03.869Z,6.67
2024-03-12T17:01:10.135Z,6.63
2024-03-12T17:06:17.818Z,6.62
2024-03-12T17:11:22.651Z,6.59
2024-03-12T17:16:27.610Z,6.56
2024-03-12T17:21:33.678Z,6.57
2024-03-12T17:26:38.554Z,6.56
2024-03-12T17:31:45.026Z,6.53
2024-03-12T17:36:49.447Z,6.50
2024-03-12T17:41:53.878Z,6.50
2024-03-12T17:47:11.853Z,6.47
2024-03-12T17:52:16.748Z,6.45
2024-03-12T17:57:21.729Z,6.42
2024-03-12T18:02:25.436Z,6.38
2024-03-12T18:07:37.732Z,6.36
2024-03-12T18:12:45.770Z,6.35
2024-03-12T18:17:50.226Z,6.33
2024-03-12T18:22:54.934Z,6.32
2024-03-12T18:27:59.372Z,6.30
2024-03-12T18:33:05.513Z,6.28
2024-03-12T18:38:10.101Z,6.25
2024-03-12T18:43:14.325Z,6.24
2024-03-12T18:48:18.909Z,6.19
2024-03-12T18:53:23.507Z,6.16
2024-03-12T18:58:28.443Z,6.14
2024-03-12T19:03:56.389Z,6.12
2024-03-12T19:09:00.887Z,6.12
2024-03-12T19:14:05.685Z,6.08
2024-03-12T19:19:11.923Z,6.05
2024-03-12T19:24:18.030Z,6.05
2024-03-12T19:29:23.908Z,6.02
2024-03-12T19:34:29.337Z,6.01
2024-03-12T19:39:35.068Z,6.02
2024-03-12T19:44:39.556Z,6.02
2024-03-12T19:49:47.223Z,6.05
2024-03-12T19:54:52.977Z,6.06
2024-03-12T19:59:59.117Z,6.04
2024-03-12T20:05:24.357Z,6.04
2024-03-12T20:10:34.902Z,6.03
2024-03-12T20:15:45.489Z,6.02
2024-03-12T20:20:52.469Z,6.02
2024-03-12T20:26:04.236Z,6.03
2024-03-12T20:31:12.535Z,6.06
2024-03-12T20:36:18.738Z,6.07
2024-03-12T20:41:23.277Z,6.07
2024-03-12T20:46:32.378Z,6.03
2024-03-12T20:52:02.741Z,6.01
2024-03-12T20:57:15.809Z,6.02
2024-03-12T21:02:20.332Z,6.01
2024-03-12T21:07:25.705Z,5.99
2024-03-12T21:12:33.948Z,5.95
2024-03-12T21:17:38.771Z,5.92
2024-03-12T21:22:47.521Z,5.92
2024-03-12T21:27:55.203Z,5.91
2024-03-12T21:32:59.615Z,5.91
2024-03-12T21:38:04.330Z,5.91
2024-03-12T21:43:11.080Z,5.90
2024-03-12T21:48:33.355Z,5.87
2024-03-12T21:53:37.627Z,5.88
2024-03-12T21:58:48.283Z,5.90
2024-03-12T22:03:54.274Z,5.90
2024-03-12T22:08:59.340Z,5.88
2024-03-12T22:14:04.157Z,5.85
2024-03-12T22:19:10.251Z,5.84
2024-03-12T22:24:24.181Z,5.81
2024-03-12T22:29:28.767Z,5.78
2024-03-12T22:34:35.315Z,5.77
2024-03-12T22:39:39.367Z,5.75
2024-03-12T22:44:44.184Z,5.75
2024-03-12T22:49:47.950Z,5.73
2024-03-12T22:54:58.454Z,5.72
2024-03-12T23:00:13.342Z,5.71
2024-03-12T23:05:18.651Z,5.73
2024-03-12T23:10:23.800Z,5.76
2024-03-12T23:15:28.451Z,5.75
2024-03-12T23:20:33.035Z,5.76
2024-03-12T23:25:40.553Z,5.74
2024-03-12T23:30:45.344Z,5.77
2024-03-12T23:35:50.319Z,5.80
2024-03-12T23:40:56.454Z,5.81
2024-03-12T23:46:00.688Z,5.83
2024-03-12T23:51:05.965Z,5.81
2024-03-12T23:56:12.796Z,5.82
